createdAt,value
2023-07-07T00:01:02.181Z,11.73
2023-07-07T00:03:28.847Z,11.75
2023-07-07T00:05:55.323Z,11.75
2023-07-07T00:08:21.817Z,11.60
2023-07-07T00:10:48.418Z,11.72
2023-07-07T00:13:15.814Z,11.71
2023-07-07T00:15:45.301Z,11.73
2023-07-07T00:18:16.207Z,11.73
2023-07-07T00:20:42.881Z,11.70
2023-07-07T00:23:09.458Z,11.74
2023-07-07T00:25:35.917Z,11.71
2023-07-07T00:28:02.372Z,11.73
2023-07-07T00:30:28.835Z,11.69
2023-07-07T00:32:55.307Z,11.73
2023-07-07T00:35:21.761Z,11.69
2023-07-07T00:37:48.265Z,11.56
2023-07-07T00:40:14.769Z,11.56
2023-07-07T00:42:41.238Z,11.60
2023-07-07T00:45:20.196Z,11.56
2023-07-07T00:47:49.013Z,11.54
2023-07-07T00:50:15.950Z,11.47
2023-07-07T00:52:43.497Z,11.28
2023-07-07T00:55:11.172Z,11.34
2023-07-07T00:57:37.608Z,11.38
2023-07-07T01:00:04.753Z,11.34
2023-07-07T01:02:31.244Z,11.34
2023-07-07T01:04:59.960Z,11.30
2023-07-07T01:07:32.489Z,11.30
2023-07-07T01:09:58.964Z,11.31
2023-07-07T01:12:25.476Z,11.29
2023-07-07T01:14:52.698Z,11.24
2023-07-07T01:17:30.221Z,11.25
2023-07-07T01:20:03.377Z,11.21
2023-07-07T01:22:51.411Z,11.20
2023-07-07T01:25:50.184Z,11.15
2023-07-07T01:28:32.953Z,11.15
2023-07-07T01:31:06.240Z,11.13
2023-07-07T01:33:32.886Z,11.05
2023-07-07T01:35:59.360Z,11.06
2023-07-07T01:38:45.432Z,11.05
2023-07-07T01:41:16.810Z,11.05
2023-07-07T01:43:48.033Z,10.87
2023-07-07T01:46:31.569Z,11.02
2023-07-07T01:49:11.592Z,11.03
2023-07-07T01:52:00.808Z,11.02
2023-07-07T01:54:28.524Z,11.04
2023-07-07T01:56:55.012Z,11.04
2023-07-07T01:59:21.478Z,10.99
2023-07-07T02:01:48.040Z,11.00
2023-07-07T02:04:14.658Z,11.00
2023-07-07T02:06:41.155Z,11.03
2023-07-07T02:09:07.794Z,10.64
2023-07-07T02:11:34.318Z,10.81
2023-07-07T02:14:00.903Z,10.99
2023-07-07T02:16:27.639Z,10.98
2023-07-07T02:18:54.105Z,11.00
2023-07-07T02:21:20.617Z,10.94
2023-07-07T02:23:47.096Z,10.85
2023-07-07T02:26:14.863Z,10.99
2023-07-07T02:28:41.316Z,11.02
2023-07-07T02:31:11.293Z,10.93
2023-07-07T02:33:37.765Z,10.92
2023-07-07T02:36:06.562Z,10.88
2023-07-07T02:38:33.510Z,10.93
2023-07-07T02:41:00.498Z,10.81
2023-07-07T02:43:27.342Z,10.88
2023-07-07T02:45:53.851Z,10.86
2023-07-07T02:48:20.631Z,10.79
2023-07-07T02:51:01.026Z,10.73
2023-07-07T02:53:32.362Z,10.72
2023-07-07T02:55:58.985Z,10.68
2023-07-07T02:58:25.518Z,10.69
2023-07-07T03:00:52.123Z,10.69
2023-07-07T03:03:19.097Z,10.61
2023-07-07T03:05:45.831Z,10.64
2023-07-07T03:08:12.304Z,10.65
2023-07-07T03:10:39.704Z,10.60
2023-07-07T03:13:06.260Z,10.60
2023-07-07T03:15:42.684Z,10.49
2023-07-07T03:18:10.085Z,10.54
2023-07-07T03:20:36.729Z,10.54
2023-07-07T03:23:03.942Z,10.58
2023-07-07T03:25:30.675Z,10.48
2023-07-07T03:27:57.333Z,10.53
2023-07-07T03:30:23.818Z,10.39
2023-07-07T03:32:50.359Z,10.43
2023-07-07T03:35:16.922Z,10.41
2023-07-07T03:37:43.380Z,10.44
2023-07-07T03:40:10.735Z,10.37
2023-07-07T03:42:38.251Z,10.36
2023-07-07T03:45:05.225Z,10.40
2023-07-07T03:47:31.781Z,10.39
2023-07-07T03:49:58.249Z,10.21
2023-07-07T03:52:24.719Z,10.34
2023-07-07T03:54:51.410Z,10.42
2023-07-07T03:57:17.912Z,10.38
2023-07-07T03:59:44.372Z,10.36
2023-07-07T04:02:10.853Z,10.37
2023-07-07T04:04:37.462Z,10.35
2023-07-07T04:07:04.087Z,10.30
2023-07-07T04:09:30.549Z,10.27
2023-07-07T04:11:57.002Z,10.30
2023-07-07T04:14:27.337Z,10.38
2023-07-07T04:16:53.811Z,10.38
2023-07-07T04:19:21.714Z,10.37
2023-07-07T04:21:48.173Z,10.35
2023-07-07T04:24:14.622Z,10.33
2023-07-07T04:26:41.127Z,10.37
2023-07-07T04:29:07.577Z,10.32
2023-07-07T04:31:35.126Z,10.19
2023-07-07T04:34:01.600Z,10.44
2023-07-07T04:36:28.030Z,10.37
2023-07-07T04:38:54.543Z,10.45
2023-07-07T04:41:22.551Z,10.41
2023-07-07T04:43:53.760Z,10.49
2023-07-07T04:46:30.011Z,10.43
2023-07-07T04:48:56.633Z,10.45
2023-07-07T04:51:23.117Z,10.62
2023-07-07T04:53:49.651Z,10.56
2023-07-07T04:56:18.142Z,10.43
2023-07-07T04:58:44.872Z,10.61
2023-07-07T05:01:19.980Z,10.67
2023-07-07T05:03:48.964Z,10.73
2023-07-07T05:06:15.752Z,10.77
2023-07-07T05:08:43.009Z,10.80
2023-07-07T05:11:13.581Z,10.78
2023-07-07T05:13:40.155Z,10.88
2023-07-07T05:16:08.702Z,10.99
2023-07-07T05:18:35.209Z,11.03
2023-07-07T05:21:06.178Z,11.08
2023-07-07T05:23:33.460Z,11.14
2023-07-07T05:25:59.931Z,11.15
2023-07-07T05:28:27.119Z,11.27
2023-07-07T05:30:53.591Z,11.29
2023-07-07T05:33:20.708Z,11.34
2023-07-07T05:35:51.883Z,11.44
2023-07-07T05:38:18.658Z,11.52
2023-07-07T05:40:46.463Z,11.56
2023-07-07T05:43:13.873Z,11.61
2023-07-07T05:45:40.349Z,11.55
2023-07-07T05:48:07.001Z,11.83
2023-07-07T05:50:33.793Z,11.96
2023-07-07T05:53:00.416Z,12.04
2023-07-07T05:55:30.829Z,12.16
2023-07-07T05:57:57.545Z,12.14
2023-07-07T06:00:28.242Z,12.33
2023-07-07T06:02:55.690Z,12.35
2023-07-07T06:05:22.237Z,12.54
2023-07-07T06:07:48.750Z,12.56
2023-07-07T06:10:15.201Z,12.64
2023-07-07T06:12:41.687Z,12.71
2023-07-07T06:15:08.658Z,12.79
2023-07-07T06:17:35.246Z,12.81
2023-07-07T06:20:01.978Z,12.89
2023-07-07T06:22:28.474Z,12.97
2023-07-07T06:24:54.924Z,12.99
2023-07-07T06:27:21.399Z,12.99
2023-07-07T06:29:48.099Z,13.01
2023-07-07T06:32:14.573Z,13.17
2023-07-07T06:34:41.002Z,13.33
2023-07-07T06:37:07.451Z,13.40
2023-07-07T06:39:33.962Z,13.41
2023-07-07T06:42:01.191Z,13.64
2023-07-07T06:44:27.677Z,13.74
2023-07-07T06:46:54.432Z,13.82
2023-07-07T06:49:20.899Z,13.82
2023-07-07T06:51:47.356Z,13.93
2023-07-07T06:54:13.929Z,14.10
2023-07-07T06:56:40.381Z,14.31
2023-07-07T06:59:06.878Z,14.45
2023-07-07T07:01:33.372Z,14.67
2023-07-07T07:04:01.631Z,14.88
2023-07-07T07:06:28.681Z,15.12
2023-07-07T07:08:55.157Z,15.30
2023-07-07T07:11:21.694Z,15.53
2023-07-07T07:13:48.438Z,15.71
2023-07-07T07:16:15.022Z,15.98
2023-07-07T07:18:41.478Z,16.31
2023-07-07T07:21:07.985Z,16.80
2023-07-07T07:23:36.272Z,17.49
2023-07-07T07:26:03.032Z,18.63
2023-07-07T07:28:29.728Z,20.02
2023-07-07T07:30:56.484Z,21.54
2023-07-07T07:33:23.827Z,22.82
2023-07-07T07:35:50.321Z,23.94
2023-07-07T07:38:17.221Z,25.02
2023-07-07T07:40:43.775Z,25.98
2023-07-07T07:43:10.244Z,26.80
2023-07-07T07:45:37.597Z,27.64
2023-07-07T07:48:04.452Z,28.42
2023-07-07T07:50:32.437Z,29.03
2023-07-07T07:52:58.929Z,29.73
2023-07-07T07:55:25.589Z,30.38
2023-07-07T07:57:52.036Z,31.05
2023-07-07T08:00:18.866Z,31.68
2023-07-07T08:02:45.551Z,32.15
2023-07-07T08:05:12.252Z,32.58
2023-07-07T08:07:39.207Z,32.98
2023-07-07T08:10:06.361Z,33.39
2023-07-07T08:12:33.462Z,33.69
2023-07-07T08:15:00.122Z,34.07
2023-07-07T08:17:28.074Z,34.38
2023-07-07T08:19:55.648Z,34.92
2023-07-07T08:22:23.217Z,35.19
2023-07-07T08:24:52.124Z,35.59
2023-07-07T08:29:48.118Z,36.41
2023-07-07T08:32:15.963Z,36.73
2023-07-07T08:34:53.267Z,36.98
2023-07-07T08:37:22.087Z,37.25
2023-07-07T08:39:48.612Z,37.50
2023-07-07T08:42:26.892Z,37.85
2023-07-07T08:44:54.237Z,38.23
2023-07-07T08:47:29.647Z,38.45
2023-07-07T08:50:06.532Z,38.74
2023-07-07T08:52:41.600Z,39.12
2023-07-07T08:55:33.055Z,39.56
2023-07-07T08:58:08.112Z,39.65
2023-07-07T09:01:10.064Z,39.72
2023-07-07T09:04:04.939Z,40.04
2023-07-07T09:07:02.408Z,40.46
2023-07-07T09:10:08.181Z,40.70
2023-07-07T09:12:49.556Z,40.65
2023-07-07T09:15:21.324Z,40.91
2023-07-07T09:17:50.693Z,41.02
2023-07-07T09:20:17.203Z,40.91
2023-07-07T09:22:46.932Z,41.38
2023-07-07T09:25:34.416Z,41.45
2023-07-07T09:28:13.999Z,41.41
2023-07-07T09:30:43.403Z,41.31
2023-07-07T09:33:17.269Z,40.62
2023-07-07T09:35:55.415Z,39.61
2023-07-07T09:38:33.881Z,38.49
2023-07-07T09:41:26.494Z,37.55
2023-07-07T09:44:12.713Z,36.75
2023-07-07T09:47:06.702Z,35.80
2023-07-07T09:50:05.003Z,35.11
2023-07-07T09:52:54.921Z,34.57
2023-07-07T09:56:45.543Z,33.81
2023-07-07T10:03:33.997Z,32.83
2023-07-07T10:07:21.942Z,32.30
2023-07-07T10:13:45.289Z,31.64
2023-07-07T10:17:13.400Z,31.43
2023-07-07T10:28:06.054Z,30.48
2023-07-07T10:31:06.667Z,30.43
2023-07-07T10:33:45.778Z,30.44
2023-07-07T10:47:39.136Z,29.76
2023-07-07T10:51:01.833Z,29.47
2023-07-07T10:53:48.113Z,29.49
2023-07-07T11:00:31.470Z,28.99
2023-07-07T11:04:31.286Z,28.76
2023-07-07T11:11:59.113Z,28.46
2023-07-07T11:14:48.390Z,28.33
2023-07-07T11:18:04.715Z,28.18
2023-07-07T11:20:39.946Z,28.16
2023-07-07T11:23:27.320Z,28.12
2023-07-07T11:26:13.377Z,28.08
2023-07-07T11:29:12.171Z,27.67
2023-07-07T11:32:15.547Z,27.49
2023-07-07T11:35:19.799Z,27.54
2023-07-07T11:38:05.735Z,27.55
2023-07-07T11:40:50.994Z,27.41
2023-07-07T11:43:38.702Z,27.34
2023-07-07T11:46:27.888Z,27.25
2023-07-07T11:49:16.825Z,27.01
2023-07-07T11:52:10.088Z,26.73
2023-07-07T11:55:15.059Z,26.60
2023-07-07T11:58:27.961Z,26.53
2023-07-07T12:00:59.691Z,26.63
2023-07-07T12:03:55.929Z,26.60
2023-07-07T12:06:44.301Z,26.61
2023-07-07T12:09:24.134Z,26.63
2023-07-07T12:11:56.671Z,26.53
2023-07-07T12:14:48.198Z,26.42
2023-07-07T12:17:19.965Z,26.28
2023-07-07T12:19:48.876Z,26.35
2023-07-07T12:22:22.738Z,26.37
2023-07-07T12:25:08.311Z,26.26
2023-07-07T12:27:43.198Z,26.17
2023-07-07T12:30:23.359Z,26.04
2023-07-07T12:32:52.744Z,26.08
2023-07-07T12:35:37.378Z,26.04
2023-07-07T12:38:34.746Z,26.02
2023-07-07T12:41:14.677Z,26.07
2023-07-07T12:43:47.207Z,25.98
2023-07-07T12:46:30.563Z,25.90
2023-07-07T12:49:01.619Z,25.74
2023-07-07T12:51:28.951Z,25.64
2023-07-07T12:53:58.686Z,25.68
2023-07-07T12:56:29.345Z,25.69
2023-07-07T12:58:59.616Z,25.68
2023-07-07T13:01:36.177Z,25.66
2023-07-07T13:04:08.898Z,25.62
2023-07-07T13:06:38.362Z,25.62
2023-07-07T13:09:13.953Z,25.61
2023-07-07T13:11:48.033Z,25.57
2023-07-07T13:14:28.575Z,25.42
2023-07-07T13:16:56.021Z,25.44
2023-07-07T13:19:22.930Z,25.40
2023-07-07T13:21:49.591Z,25.31
2023-07-07T13:24:16.936Z,25.32
2023-07-07T13:26:43.895Z,25.39
2023-07-07T13:29:12.988Z,25.38
2023-07-07T13:31:40.707Z,25.39
2023-07-07T13:34:17.329Z,25.28
2023-07-07T13:36:50.165Z,25.38
2023-07-07T13:39:21.452Z,25.45
2023-07-07T13:41:48.671Z,25.50
2023-07-07T13:44:19.332Z,25.43
2023-07-07T13:46:53.815Z,25.45
2023-07-07T13:49:23.891Z,25.41
2023-07-07T13:51:55.162Z,25.36
2023-07-07T13:54:27.165Z,25.34
2023-07-07T13:57:05.485Z,25.31
2023-07-07T13:59:32.417Z,25.34
2023-07-07T14:01:59.445Z,25.35
2023-07-07T14:04:36.649Z,25.33
2023-07-07T14:07:03.840Z,25.30
2023-07-07T14:09:40.974Z,25.21
2023-07-07T14:12:12.738Z,25.17
2023-07-07T14:14:41.915Z,25.16
2023-07-07T14:17:17.378Z,25.07
2023-07-07T14:19:53.406Z,24.93
2023-07-07T14:22:20.053Z,24.90
2023-07-07T14:24:46.576Z,24.86
2023-07-07T14:27:13.855Z,24.80
2023-07-07T14:29:41.185Z,24.80
2023-07-07T14:32:14.874Z,24.75
2023-07-07T14:34:50.863Z,24.72
2023-07-07T14:37:38.544Z,24.67
2023-07-07T14:40:24.296Z,24.66
2023-07-07T14:42:51.411Z,24.63
2023-07-07T14:45:26.525Z,24.53
2023-07-07T14:47:53.424Z,24.56
2023-07-07T14:50:19.984Z,24.46
2023-07-07T14:52:48.297Z,24.41
2023-07-07T14:55:41.239Z,24.40
2023-07-07T14:58:20.004Z,24.44
2023-07-07T15:00:46.937Z,24.48
2023-07-07T15:03:33.960Z,24.40
2023-07-07T15:06:25.548Z,24.37
2023-07-07T15:08:52.744Z,24.35
2023-07-07T15:11:24.014Z,24.33
2023-07-07T15:13:50.740Z,24.35
2023-07-07T15:16:20.429Z,24.36
2023-07-07T15:18:46.963Z,24.32
2023-07-07T15:21:24.327Z,24.33
2023-07-07T15:23:50.930Z,24.34
2023-07-07T15:26:33.121Z,24.16
2023-07-07T15:29:00.190Z,24.24
2023-07-07T15:31:27.008Z,24.26
2023-07-07T15:33:53.748Z,24.26
2023-07-07T15:36:20.556Z,24.27
2023-07-07T15:39:06.099Z,24.29
2023-07-07T15:41:35.674Z,24.28
2023-07-07T15:44:02.672Z,24.25
2023-07-07T15:46:40.836Z,24.23
2023-07-07T15:49:13.857Z,24.24
2023-07-07T15:51:42.236Z,24.21
2023-07-07T15:54:09.698Z,24.17
2023-07-07T15:56:40.802Z,24.12
2023-07-07T15:59:24.628Z,24.10
2023-07-07T16:01:52.466Z,23.99
2023-07-07T16:04:20.111Z,23.97
2023-07-07T16:06:46.806Z,23.90
2023-07-07T16:09:16.831Z,23.85
2023-07-07T16:11:43.966Z,23.83
2023-07-07T16:14:10.657Z,23.79
2023-07-07T16:16:37.980Z,23.76
2023-07-07T16:19:11.945Z,23.71
2023-07-07T16:21:38.524Z,23.67
2023-07-07T16:24:05.562Z,23.62
2023-07-07T16:26:36.233Z,23.56
2023-07-07T16:29:02.798Z,23.55
2023-07-07T16:31:30.127Z,23.51
2023-07-07T16:33:56.644Z,23.44
2023-07-07T16:36:24.647Z,23.39
2023-07-07T16:38:51.675Z,23.33
2023-07-07T16:41:20.969Z,23.30
2023-07-07T16:43:48.080Z,23.29
2023-07-07T16:46:15.497Z,23.20
2023-07-07T16:48:47.905Z,23.14
2023-07-07T16:51:20.761Z,23.20
2023-07-07T16:53:47.399Z,23.15
2023-07-07T16:56:34.513Z,23.11
2023-07-07T16:59:01.102Z,23.09
2023-07-07T17:01:30.683Z,23.06
2023-07-07T17:03:57.333Z,23.04
2023-07-07T17:06:26.413Z,22.92
2023-07-07T17:08:52.906Z,23.02
2023-07-07T17:11:19.434Z,22.92
2023-07-07T17:13:46.059Z,22.89
2023-07-07T17:16:20.018Z,22.87
2023-07-07T17:18:48.476Z,22.85
2023-07-07T17:21:15.026Z,22.87
2023-07-07T17:23:41.558Z,22.82
2023-07-07T17:26:16.224Z,22.67
2023-07-07T17:28:42.776Z,22.84
2023-07-07T17:31:24.577Z,22.75
2023-07-07T17:33:53.518Z,22.72
2023-07-07T17:36:22.297Z,22.63
2023-07-07T17:38:49.005Z,22.61
2023-07-07T17:41:16.169Z,22.56
2023-07-07T17:43:42.704Z,22.50
2023-07-07T17:46:31.098Z,22.40
2023-07-07T17:49:01.492Z,22.40
2023-07-07T17:51:29.003Z,22.27
2023-07-07T17:53:56.230Z,22.19
2023-07-07T17:56:24.528Z,22.12
2023-07-07T17:58:51.180Z,22.10
2023-07-07T18:01:17.918Z,21.99
2023-07-07T18:03:44.826Z,21.93
2023-07-07T18:06:22.676Z,21.86
2023-07-07T18:08:51.063Z,21.80
2023-07-07T18:11:24.876Z,21.69
2023-07-07T18:13:52.203Z,21.63
2023-07-07T18:16:36.604Z,21.40
2023-07-07T18:19:13.044Z,21.41
2023-07-07T18:21:57.872Z,21.36
2023-07-07T18:24:26.827Z,21.25
2023-07-07T18:26:56.104Z,21.17
2023-07-07T18:29:23.566Z,21.10
2023-07-07T18:31:50.223Z,20.92
2023-07-07T18:34:17.122Z,20.86
2023-07-07T18:36:48.178Z,20.87
2023-07-07T18:39:18.141Z,20.82
2023-07-07T18:41:44.701Z,20.80
2023-07-07T18:44:11.211Z,20.71
2023-07-07T18:46:37.744Z,20.53
2023-07-07T18:49:08.695Z,20.53
2023-07-07T18:51:39.276Z,20.42
2023-07-07T18:54:05.820Z,20.12
2023-07-07T18:56:33.642Z,20.14
2023-07-07T18:59:00.252Z,20.17
2023-07-07T19:01:29.756Z,20.04
2023-07-07T19:03:56.458Z,19.93
2023-07-07T19:06:27.265Z,19.86
2023-07-07T19:08:53.827Z,19.87
2023-07-07T19:11:20.366Z,19.92
2023-07-07T19:13:47.042Z,19.82
2023-07-07T19:16:17.653Z,19.75
2023-07-07T19:18:46.590Z,19.60
2023-07-07T19:21:14.344Z,19.57
2023-07-07T19:23:40.887Z,19.50
2023-07-07T19:26:41.724Z,19.42
2023-07-07T19:29:10.396Z,19.38
2023-07-07T19:31:36.960Z,19.29
2023-07-07T19:34:04.985Z,19.18
2023-07-07T19:36:32.999Z,19.10
2023-07-07T19:38:59.529Z,18.96
2023-07-07T19:41:28.560Z,18.98
2023-07-07T19:43:56.708Z,18.97
2023-07-07T19:46:31.259Z,18.92
2023-07-07T19:48:57.928Z,18.89
2023-07-07T19:51:28.888Z,18.85
2023-07-07T19:53:56.005Z,18.78
2023-07-07T19:56:22.707Z,18.78
2023-07-07T19:58:51.519Z,18.71
2023-07-07T20:01:19.389Z,18.64
2023-07-07T20:03:46.879Z,18.51
2023-07-07T20:06:17.940Z,18.50
2023-07-07T20:08:44.405Z,18.48
2023-07-07T20:11:19.061Z,18.43
2023-07-07T20:13:45.724Z,18.29
2023-07-07T20:16:32.223Z,18.05
2023-07-07T20:19:01.546Z,18.08
2023-07-07T20:21:28.034Z,18.04
2023-07-07T20:23:54.553Z,18.02
2023-07-07T20:26:22.029Z,17.92
2023-07-07T20:28:51.800Z,17.92
2023-07-07T20:31:19.025Z,17.81
2023-07-07T20:33:46.048Z,17.82
2023-07-07T20:36:13.325Z,17.70
2023-07-07T20:38:40.457Z,17.63
2023-07-07T20:41:12.040Z,17.57
2023-07-07T20:43:39.120Z,17.58
2023-07-07T20:46:27.726Z,17.57
2023-07-07T20:48:54.263Z,17.56
2023-07-07T20:51:23.118Z,17.51
2023-07-07T20:53:49.566Z,17.47
2023-07-07T20:56:17.696Z,17.40
2023-07-07T20:58:44.405Z,17.40
2023-07-07T21:01:11.795Z,17.38
2023-07-07T21:03:38.425Z,17.33
2023-07-07T21:06:05.248Z,17.29
2023-07-07T21:08:31.725Z,17.21
2023-07-07T21:10:58.379Z,17.15
2023-07-07T21:13:25.474Z,17.11
2023-07-07T21:15:52.574Z,17.04
2023-07-07T21:18:19.168Z,17.03
2023-07-07T21:20:46.530Z,16.93
2023-07-07T21:23:14.525Z,16.92
2023-07-07T21:25:41.362Z,16.86
2023-07-07T21:28:14.653Z,16.75
2023-07-07T21:30:42.498Z,16.89
2023-07-07T21:33:09.631Z,16.75
2023-07-07T21:35:36.060Z,16.84
2023-07-07T21:38:02.543Z,16.87
2023-07-07T21:40:29.037Z,16.79
2023-07-07T21:42:55.718Z,16.77
2023-07-07T21:45:23.352Z,16.77
2023-07-07T21:47:54.629Z,16.75
2023-07-07T21:50:22.718Z,16.72
2023-07-07T21:52:49.342Z,16.58
2023-07-07T21:55:16.064Z,16.50
2023-07-07T21:57:49.463Z,16.56
2023-07-07T22:00:28.828Z,16.54
2023-07-07T22:02:59.445Z,16.50
2023-07-07T22:05:26.776Z,16.28
2023-07-07T22:07:53.470Z,16.37
2023-07-07T22:10:31.611Z,16.34
2023-07-07T22:12:58.064Z,16.29
2023-07-07T22:15:24.579Z,16.30
2023-07-07T22:17:51.067Z,16.25
2023-07-07T22:20:49.755Z,16.34
2023-07-07T22:23:16.209Z,16.30
2023-07-07T22:25:43.285Z,16.20
2023-07-07T22:28:24.448Z,16.08
2023-07-07T22:30:53.720Z,16.13
2023-07-07T22:33:20.749Z,16.11
2023-07-07T22:35:47.445Z,16.08
2023-07-07T22:38:18.554Z,16.03
2023-07-07T22:40:46.065Z,16.00
2023-07-07T22:43:13.569Z,16.00
2023-07-07T22:45:40.083Z,15.81
2023-07-07T22:48:11.233Z,15.95
2023-07-07T22:50:37.687Z,15.88
2023-07-07T22:53:06.587Z,15.87
2023-07-07T22:55:33.049Z,15.85
2023-07-07T22:57:59.531Z,15.82
2023-07-07T23:00:30.202Z,15.75
2023-07-07T23:02:56.918Z,15.77
2023-07-07T23:05:24.479Z,15.53
2023-07-07T23:07:51.107Z,15.65
2023-07-07T23:10:18.828Z,15.66
2023-07-07T23:12:45.477Z,15.63
2023-07-07T23:15:13.019Z,15.57
2023-07-07T23:17:39.584Z,15.57
2023-07-07T23:20:15.950Z,15.52
2023-07-07T23:22:42.475Z,15.49
2023-07-07T23:25:11.554Z,15.46
2023-07-07T23:27:47.079Z,15.51
2023-07-07T23:30:38.473Z,15.46
2023-07-07T23:33:06.088Z,15.34
2023-07-07T23:35:33.530Z,15.26
2023-07-07T23:38:00.069Z,15.26
2023-07-07T23:40:31.126Z,15.27
2023-07-07T23:42:58.268Z,15.20
2023-07-07T23:45:24.884Z,15.09
2023-07-07T23:47:56.826Z,15.11
2023-07-07T23:50:35.482Z,15.12
2023-07-07T23:53:01.982Z,15.15
2023-07-07T23:55:31.866Z,15.17
2023-07-07T23:57:58.531Z,15.14
